Black Diamond, Washington
Current Conditions -  °F | °C
As of 8:53 AM on Saturday 25 Oct 2014 (Local Time) from KRNT Reporting Station
Light Rain Light Rain  
Wind Chill: 51°   Ceiling: 7000
Heat Index: 51°   Visibility: 5mi
Dew Point: 50°   Wind: 7mph
Humidity: 96%   Direction: NA
Pressure: 29.56"   Gusts: NA
Location:  47.31°N, 122°W
Report Text: KRNT 251553Z VRB06KT 5SM -RA BR FEW012 OVC070 11/10 A2956 RMK AO2 RAB04 PRESFR SLP014 P0007 T01060100
Loading
Personal Weather Stations






























Interactive Weather Map
Tropical Storm Tracking
New forecast layout! Learn more

10-Day Weather Forecast

Advertisements
Track Severe Weather on mobile